createdAt,value
2023-02-22T00:01:28.334Z,59.05
2023-02-22T00:03:55.164Z,59.78
2023-02-22T00:06:25.033Z,72.00
2023-02-22T00:08:52.575Z,59.92
2023-02-22T00:11:20.658Z,62.70
2023-02-22T00:13:47.658Z,72.97
2023-02-22T00:16:25.434Z,80.28
2023-02-22T00:18:52.511Z,72.35
2023-02-22T00:21:19.532Z,67.30
2023-02-22T00:23:47.992Z,69.10
2023-02-22T00:26:18.380Z,69.55
2023-02-22T00:28:51.540Z,79.60
2023-02-22T00:31:19.531Z,74.57
2023-02-22T00:33:46.387Z,76.57
2023-02-22T00:36:14.045Z,73.05
2023-02-22T00:38:41.556Z,78.28
2023-02-22T00:41:08.313Z,73.95
2023-02-22T00:43:35.130Z,73.18
2023-02-22T00:46:01.743Z,77.20
2023-02-22T00:48:28.613Z,85.22
2023-02-22T00:50:55.471Z,84.35
2023-02-22T00:53:23.905Z,89.88
2023-02-22T00:55:50.747Z,76.57
2023-02-22T00:58:18.531Z,75.88
2023-02-22T01:00:46.067Z,78.38
2023-02-22T01:03:17.192Z,81.35
2023-02-22T01:05:44.170Z,76.57
2023-02-22T01:08:13.747Z,75.07
2023-02-22T01:10:40.689Z,75.90
2023-02-22T01:13:09.281Z,72.97
2023-02-22T01:15:38.961Z,75.18
2023-02-22T01:18:05.830Z,70.57
2023-02-22T01:20:33.248Z,77.68
2023-02-22T01:23:03.403Z,79.88
2023-02-22T01:25:31.640Z,81.57
2023-02-22T01:27:59.959Z,85.00
2023-02-22T01:30:30.586Z,80.57
2023-02-22T01:32:58.062Z,78.78
2023-02-22T01:35:27.955Z,71.78
2023-02-22T01:37:55.287Z,76.50
2023-02-22T01:40:25.216Z,71.15
2023-02-22T01:42:53.970Z,82.63
2023-02-22T01:45:29.942Z,77.93
2023-02-22T01:48:04.036Z,87.45
2023-02-22T01:50:33.866Z,80.38
2023-02-22T01:53:01.488Z,78.68
2023-02-22T01:55:28.428Z,75.65
2023-02-22T01:57:56.887Z,76.18
2023-02-22T02:00:24.444Z,67.30
2023-02-22T02:02:59.078Z,78.22
2023-02-22T02:05:27.308Z,81.75
2023-02-22T02:07:54.199Z,73.03
2023-02-22T02:10:21.463Z,81.72
2023-02-22T02:12:50.553Z,83.38
2023-02-22T02:15:30.736Z,76.80
2023-02-22T02:18:03.932Z,72.32
2023-02-22T02:20:42.832Z,71.32
2023-02-22T02:23:41.153Z,88.18
2023-02-22T02:26:22.418Z,78.43
2023-02-22T02:29:19.742Z,78.85
2023-02-22T02:32:11.647Z,79.97
2023-02-22T02:34:41.298Z,75.90
2023-02-22T02:37:40.303Z,78.25
2023-02-22T02:40:24.195Z,78.35
2023-02-22T02:42:55.787Z,75.03
2023-02-22T02:45:30.997Z,79.13
2023-02-22T02:47:59.303Z,74.45
2023-02-22T02:50:29.937Z,73.60
2023-02-22T02:52:59.871Z,77.00
2023-02-22T02:55:29.184Z,68.78
2023-02-22T02:57:55.873Z,84.60
2023-02-22T03:00:26.706Z,74.47
2023-02-22T03:03:31.031Z,80.13
2023-02-22T03:06:23.829Z,75.68
2023-02-22T03:09:03.589Z,77.88
2023-02-22T03:12:24.124Z,80.93
2023-02-22T03:15:08.516Z,72.45
2023-02-22T03:18:03.513Z,75.53
2023-02-22T03:20:33.516Z,72.60
2023-02-22T03:23:10.568Z,77.93
2023-02-22T03:25:43.620Z,74.93
2023-02-22T03:28:12.197Z,73.88
2023-02-22T03:30:48.453Z,68.93
2023-02-22T03:33:20.999Z,77.28
2023-02-22T03:35:56.931Z,76.45
2023-02-22T03:38:27.233Z,76.90
2023-02-22T03:40:59.316Z,80.47
2023-02-22T03:43:30.803Z,73.82
2023-02-22T03:46:00.885Z,88.50
2023-02-22T03:48:30.590Z,79.38
2023-02-22T03:51:02.789Z,87.60
2023-02-22T03:53:30.609Z,88.18
2023-02-22T03:55:58.307Z,88.40
2023-02-22T03:58:25.816Z,84.05
2023-02-22T04:00:53.539Z,82.05
2023-02-22T04:03:23.622Z,98.35
2023-02-22T04:05:51.110Z,87.97
2023-02-22T04:08:19.246Z,91.32
2023-02-22T04:10:46.758Z,98.18
2023-02-22T04:13:17.620Z,97.13
2023-02-22T04:15:47.205Z,94.38
2023-02-22T04:18:14.170Z,90.43
2023-02-22T04:20:41.388Z,99.28
2023-02-22T04:23:11.010Z,90.72
2023-02-22T04:25:40.047Z,94.53
2023-02-22T04:28:15.550Z,94.90
2023-02-22T04:30:47.817Z,97.93
2023-02-22T04:33:16.750Z,101.95
2023-02-22T04:35:43.438Z,108.22
2023-02-22T04:38:10.116Z,96.38
2023-02-22T04:40:39.172Z,97.10
2023-02-22T04:43:06.831Z,95.82
2023-02-22T04:45:33.420Z,105.00
2023-02-22T04:48:01.344Z,102.97
2023-02-22T04:50:28.217Z,103.45
2023-02-22T04:52:56.420Z,105.80
2023-02-22T04:55:23.539Z,99.45
2023-02-22T04:57:50.317Z,96.63
2023-02-22T05:00:18.947Z,102.75
2023-02-22T05:02:45.830Z,105.82
2023-02-22T05:05:14.764Z,104.15
2023-02-22T05:07:41.613Z,113.70
2023-02-22T05:10:08.894Z,110.45
2023-02-22T05:12:36.170Z,107.00
2023-02-22T05:15:06.545Z,112.28
2023-02-22T05:17:33.572Z,109.65
2023-02-22T05:20:00.309Z,104.40
2023-02-22T05:22:26.923Z,98.47
2023-02-22T05:24:53.559Z,110.07
2023-02-22T05:27:20.139Z,113.95
2023-02-22T05:29:46.758Z,108.45
2023-02-22T05:32:13.334Z,111.28
2023-02-22T05:34:39.940Z,114.43
2023-02-22T05:37:06.929Z,116.40
2023-02-22T05:39:33.610Z,112.15
2023-02-22T05:42:00.286Z,112.60
2023-02-22T05:44:28.008Z,111.57
2023-02-22T05:46:54.642Z,119.28
2023-02-22T05:49:21.326Z,109.38
2023-02-22T05:51:47.952Z,116.45
2023-02-22T05:54:14.469Z,119.65
2023-02-22T05:56:41.063Z,115.05
2023-02-22T05:59:07.744Z,128.95
2023-02-22T06:01:34.282Z,127.90
2023-02-22T06:04:00.987Z,117.18
2023-02-22T06:06:27.565Z,131.93
2023-02-22T06:08:54.155Z,122.72
2023-02-22T06:11:20.724Z,129.90
2023-02-22T06:13:51.788Z,130.93
2023-02-22T06:16:19.278Z,127.82
2023-02-22T06:18:45.987Z,125.95
2023-02-22T06:21:12.627Z,132.57
2023-02-22T06:23:39.205Z,121.40
2023-02-22T06:26:06.075Z,127.68
2023-02-22T06:28:32.713Z,122.70
2023-02-22T06:30:59.394Z,130.35
2023-02-22T06:33:26.070Z,127.00
2023-02-22T06:35:52.679Z,129.43
2023-02-22T06:38:23.935Z,126.05
2023-02-22T06:40:51.026Z,115.95
2023-02-22T06:43:17.760Z,129.98
2023-02-22T06:45:44.449Z,127.38
2023-02-22T06:48:11.166Z,126.85
2023-02-22T06:50:37.765Z,124.80
2023-02-22T06:53:04.359Z,118.70
2023-02-22T06:55:32.970Z,126.65
2023-02-22T06:58:00.174Z,123.85
2023-02-22T07:00:28.270Z,125.85
2023-02-22T07:02:55.429Z,133.48
2023-02-22T07:05:23.193Z,127.97
2023-02-22T07:07:52.588Z,130.75
2023-02-22T07:10:26.217Z,112.70
2023-02-22T07:12:52.789Z,123.88
2023-02-22T07:15:24.153Z,123.35
2023-02-22T07:17:52.043Z,125.82
2023-02-22T07:20:20.649Z,126.45
2023-02-22T07:22:48.481Z,120.70
2023-02-22T07:25:15.032Z,136.65
2023-02-22T07:27:42.933Z,139.02
2023-02-22T07:30:19.267Z,136.30
2023-02-22T07:32:46.794Z,126.22
2023-02-22T07:35:29.420Z,140.82
2023-02-22T07:37:56.277Z,130.27
2023-02-22T07:40:24.425Z,131.98
2023-02-22T07:43:14.477Z,137.75
2023-02-22T07:45:41.346Z,127.38
2023-02-22T07:48:08.390Z,124.90
2023-02-22T07:50:35.653Z,129.60
2023-02-22T07:53:05.707Z,137.57
2023-02-22T07:55:33.436Z,138.05
2023-02-22T07:58:02.262Z,138.45
2023-02-22T08:00:34.524Z,130.30
2023-02-22T08:03:03.080Z,129.23
2023-02-22T08:05:31.465Z,133.93
2023-02-22T08:07:58.435Z,138.00
2023-02-22T08:10:26.489Z,124.00
2023-02-22T08:12:53.775Z,132.15
2023-02-22T08:15:30.319Z,135.45
2023-02-22T08:17:58.123Z,133.88
2023-02-22T08:20:25.258Z,128.70
2023-02-22T08:22:52.016Z,117.05
2023-02-22T08:25:20.784Z,126.35
2023-02-22T08:27:47.397Z,131.23
2023-02-22T08:30:20.202Z,135.85
2023-02-22T08:32:47.628Z,130.67
2023-02-22T08:35:15.916Z,131.32
2023-02-22T08:37:44.306Z,129.30
2023-02-22T08:40:13.333Z,130.82
2023-02-22T08:42:41.077Z,124.07
2023-02-22T08:45:08.115Z,128.55
2023-02-22T08:47:34.714Z,127.72
2023-02-22T08:50:01.697Z,135.02
2023-02-22T08:52:28.425Z,139.75
2023-02-22T08:54:55.679Z,135.18
2023-02-22T08:57:22.402Z,138.18
2023-02-22T08:59:49.091Z,131.60
2023-02-22T09:02:17.609Z,141.50
2023-02-22T09:04:44.741Z,137.57
2023-02-22T09:07:11.459Z,142.88
2023-02-22T09:09:38.142Z,136.38
2023-02-22T09:12:05.121Z,141.50
2023-02-22T09:14:31.851Z,134.13
2023-02-22T09:16:58.446Z,133.25
2023-02-22T09:19:25.042Z,136.70
2023-02-22T09:21:56.185Z,140.20
2023-02-22T09:24:23.306Z,152.65
2023-02-22T09:26:54.119Z,145.13
2023-02-22T09:29:22.878Z,147.23
2023-02-22T09:31:51.336Z,142.32
2023-02-22T09:34:20.108Z,146.75
2023-02-22T09:36:47.909Z,139.35
2023-02-22T09:39:16.396Z,137.93
2023-02-22T09:41:52.375Z,134.23
2023-02-22T09:44:36.154Z,144.07
2023-02-22T09:47:04.221Z,143.38
2023-02-22T09:49:47.268Z,150.15
2023-02-22T09:52:27.868Z,140.33
2023-02-22T09:55:04.739Z,136.02
2023-02-22T09:57:35.233Z,137.60
2023-02-22T10:00:20.777Z,137.85
2023-02-22T10:02:53.519Z,146.30
2023-02-22T10:05:23.066Z,133.20
2023-02-22T10:07:55.395Z,144.50
2023-02-22T10:10:23.772Z,140.13
2023-02-22T10:12:55.854Z,140.65
2023-02-22T10:15:42.907Z,162.07
2023-02-22T10:18:32.739Z,151.02
2023-02-22T10:21:25.589Z,154.63
2023-02-22T10:24:11.641Z,158.27
2023-02-22T10:26:43.092Z,160.10
2023-02-22T10:29:37.673Z,81.82
2023-02-22T10:32:06.663Z,102.72
2023-02-22T10:34:52.836Z,110.72
2023-02-22T10:37:28.937Z,134.15
2023-02-22T10:40:06.204Z,134.35
2023-02-22T10:42:32.831Z,147.65
2023-02-22T10:44:59.776Z,124.93
2023-02-22T10:47:26.514Z,150.85
2023-02-22T10:49:57.593Z,137.20
2023-02-22T10:52:27.697Z,143.20
2023-02-22T10:55:13.724Z,137.20
2023-02-22T10:57:42.542Z,109.50
2023-02-22T11:00:29.268Z,99.97
2023-02-22T11:03:00.885Z,107.68
2023-02-22T11:05:38.409Z,90.93
2023-02-22T11:08:21.653Z,121.20
2023-02-22T11:10:52.854Z,116.70
2023-02-22T11:13:34.005Z,112.05
2023-02-22T11:16:03.302Z,119.72
2023-02-22T11:18:33.781Z,123.50
2023-02-22T11:21:10.211Z,109.97
2023-02-22T11:23:39.343Z,113.95
2023-02-22T11:26:11.177Z,107.18
2023-02-22T11:28:49.130Z,107.65
2023-02-22T11:31:17.759Z,112.97
2023-02-22T11:36:46.691Z,112.05
2023-02-22T11:39:21.643Z,107.03
2023-02-22T11:41:51.099Z,103.85
2023-02-22T11:44:31.737Z,107.15
2023-02-22T11:47:06.814Z,100.60
2023-02-22T11:49:38.617Z,111.75
2023-02-22T11:52:25.566Z,101.65
2023-02-22T11:55:02.476Z,97.20
2023-02-22T11:57:38.562Z,94.22
2023-02-22T12:00:24.623Z,84.82
2023-02-22T12:03:09.573Z,91.82
2023-02-22T12:06:01.046Z,95.63
2023-02-22T12:08:45.835Z,92.25
2023-02-22T12:11:40.413Z,99.90
2023-02-22T12:14:31.794Z,79.85
2023-02-22T12:17:13.916Z,88.85
2023-02-22T12:19:47.701Z,81.97
2023-02-22T12:25:08.968Z,80.90
2023-02-22T12:28:07.679Z,76.70
2023-02-22T12:30:39.801Z,85.38
2023-02-22T12:33:12.995Z,87.28
2023-02-22T12:35:43.180Z,81.07
2023-02-22T12:38:31.392Z,85.25
2023-02-22T12:41:08.769Z,76.25
2023-02-22T12:43:41.747Z,78.22
2023-02-22T12:46:21.796Z,82.45
2023-02-22T12:49:00.891Z,77.25
2023-02-22T12:51:52.694Z,82.15
2023-02-22T12:54:34.167Z,70.50
2023-02-22T12:57:09.892Z,70.28
2023-02-22T12:59:39.333Z,71.28
2023-02-22T13:02:23.116Z,62.75
2023-02-22T13:04:50.026Z,68.00
2023-02-22T13:07:48.962Z,65.55
2023-02-22T13:10:27.437Z,65.05
2023-02-22T13:13:03.826Z,63.13
2023-02-22T13:15:37.711Z,63.90
2023-02-22T13:18:35.748Z,75.13
2023-02-22T13:21:23.446Z,68.35
2023-02-22T13:24:03.480Z,67.22
2023-02-22T13:26:50.744Z,64.15
2023-02-22T13:29:22.223Z,65.47
2023-02-22T13:32:03.666Z,61.70
2023-02-22T13:34:40.230Z,62.78
2023-02-22T13:37:17.768Z,57.67
2023-02-22T13:40:16.858Z,57.47
2023-02-22T13:42:56.813Z,56.55
2023-02-22T13:45:53.939Z,62.95
2023-02-22T13:48:45.963Z,61.08
2023-02-22T13:51:51.839Z,56.72
2023-02-22T13:54:36.616Z,53.08
2023-02-22T13:57:04.357Z,45.60
2023-02-22T13:59:36.154Z,50.03
2023-02-22T14:02:04.553Z,52.03
2023-02-22T14:04:31.036Z,47.38
2023-02-22T14:07:03.899Z,49.00
2023-02-22T14:09:52.611Z,49.83
2023-02-22T14:12:31.422Z,48.03
2023-02-22T14:15:30.265Z,48.72
2023-02-22T14:17:57.468Z,50.50
2023-02-22T14:20:36.903Z,47.15
2023-02-22T14:23:37.643Z,53.00
2023-02-22T14:26:10.413Z,52.80
2023-02-22T14:28:51.635Z,51.13
2023-02-22T14:31:34.893Z,49.95
2023-02-22T14:34:20.189Z,49.63
2023-02-22T14:36:54.804Z,51.05
2023-02-22T14:39:21.322Z,49.42
2023-02-22T14:42:12.500Z,49.50
2023-02-22T14:44:48.811Z,47.95
2023-02-22T14:47:22.353Z,44.63
2023-02-22T14:49:51.188Z,45.67
2023-02-22T14:52:29.012Z,48.97
2023-02-22T14:55:04.422Z,50.15
2023-02-22T14:57:43.688Z,52.63
2023-02-22T15:00:23.199Z,49.92
2023-02-22T15:02:57.293Z,53.00
2023-02-22T15:05:24.117Z,50.13
2023-02-22T15:08:00.688Z,49.00
2023-02-22T15:10:28.807Z,46.80
2023-02-22T15:13:09.803Z,47.75
2023-02-22T15:15:47.496Z,50.28
2023-02-22T15:18:22.026Z,49.03
2023-02-22T15:20:55.956Z,44.15
2023-02-22T15:23:25.929Z,47.42
2023-02-22T15:25:52.573Z,46.13
2023-02-22T15:28:19.334Z,49.40
2023-02-22T15:30:46.010Z,46.65
2023-02-22T15:33:24.287Z,43.42
2023-02-22T15:35:58.192Z,48.78
2023-02-22T15:38:30.035Z,47.95
2023-02-22T15:41:04.610Z,54.13
2023-02-22T15:43:32.741Z,48.25
2023-02-22T15:46:00.654Z,48.42
2023-02-22T15:48:28.433Z,52.78
2023-02-22T15:51:06.813Z,48.58
2023-02-22T15:53:40.651Z,49.28
2023-02-22T15:58:36.474Z,48.22
2023-02-22T16:01:08.239Z,52.53
2023-02-22T16:03:47.189Z,44.10
2023-02-22T16:06:28.728Z,47.42
2023-02-22T16:08:56.964Z,52.15
2023-02-22T16:11:32.847Z,50.55
2023-02-22T16:14:02.156Z,51.50
2023-02-22T16:16:33.951Z,50.22
2023-02-22T16:19:26.514Z,49.90
2023-02-22T16:21:57.878Z,51.67
2023-02-22T16:24:32.498Z,47.78
2023-02-22T16:27:18.732Z,49.38
2023-02-22T16:30:24.838Z,47.60
2023-02-22T16:32:54.514Z,52.58
2023-02-22T16:35:21.995Z,49.47
2023-02-22T16:37:50.773Z,50.22
2023-02-22T16:40:34.018Z,52.22
2023-02-22T16:43:08.992Z,50.28
2023-02-22T16:45:36.123Z,52.20
2023-02-22T16:48:21.507Z,52.42
2023-02-22T16:50:50.921Z,42.47
2023-02-22T16:53:20.043Z,50.15
2023-02-22T16:55:51.064Z,50.80
2023-02-22T16:58:19.208Z,52.85
2023-02-22T17:00:45.881Z,58.35
2023-02-22T17:03:18.467Z,55.92
2023-02-22T17:05:45.170Z,56.15
2023-02-22T17:08:11.842Z,49.05
2023-02-22T17:10:38.681Z,52.20
2023-02-22T17:13:21.572Z,50.20
2023-02-22T17:15:50.102Z,50.92
2023-02-22T17:18:22.524Z,52.15
2023-02-22T17:20:51.142Z,49.33
2023-02-22T17:23:18.133Z,55.05
2023-02-22T17:25:56.509Z,56.60
2023-02-22T17:28:24.596Z,55.78
2023-02-22T17:30:52.831Z,54.97
2023-02-22T17:33:22.674Z,51.47
2023-02-22T17:35:49.299Z,52.40
2023-02-22T17:38:19.039Z,59.38
2023-02-22T17:40:48.140Z,51.85
2023-02-22T17:43:15.621Z,58.03
2023-02-22T17:45:42.423Z,53.22
2023-02-22T17:48:09.282Z,50.40
2023-02-22T17:50:39.974Z,50.35
2023-02-22T17:53:07.566Z,49.33
2023-02-22T17:55:37.867Z,47.55
2023-02-22T17:58:05.248Z,54.97
2023-02-22T18:00:37.173Z,46.22
2023-02-22T18:03:07.049Z,50.47
2023-02-22T18:05:39.058Z,52.42
2023-02-22T18:08:05.723Z,60.10
2023-02-22T18:10:32.349Z,59.75
2023-02-22T18:13:01.948Z,62.10
2023-02-22T18:15:29.359Z,53.35
2023-02-22T18:17:56.765Z,47.75
2023-02-22T18:20:38.170Z,56.40
2023-02-22T18:23:09.107Z,53.33
2023-02-22T18:25:36.563Z,59.00
2023-02-22T18:28:06.237Z,56.13
2023-02-22T18:30:37.478Z,55.20
2023-02-22T18:33:04.270Z,60.15
2023-02-22T18:35:31.004Z,54.53
2023-02-22T18:37:58.005Z,54.58
2023-02-22T18:40:24.654Z,57.55
2023-02-22T18:42:51.367Z,55.58
2023-02-22T18:45:18.130Z,55.88
2023-02-22T18:47:45.578Z,60.72
2023-02-22T18:50:13.506Z,58.45
2023-02-22T18:52:46.081Z,54.78
2023-02-22T18:55:18.658Z,63.78
2023-02-22T18:57:46.150Z,59.60
2023-02-22T19:00:16.576Z,59.78
2023-02-22T19:02:43.597Z,61.00
2023-02-22T19:05:11.644Z,64.72
2023-02-22T19:07:38.920Z,62.42
2023-02-22T19:10:06.985Z,63.13
2023-02-22T19:12:33.929Z,58.33
2023-02-22T19:15:01.027Z,61.17
2023-02-22T19:17:28.979Z,70.95
2023-02-22T19:19:55.924Z,64.68
2023-02-22T19:22:25.938Z,61.55
2023-02-22T19:24:55.884Z,60.85
2023-02-22T19:27:22.811Z,61.72
2023-02-22T19:29:49.827Z,63.80
2023-02-22T19:32:17.567Z,64.68
2023-02-22T19:34:44.592Z,66.00
2023-02-22T19:37:13.047Z,66.40
2023-02-22T19:39:42.236Z,63.58
2023-02-22T19:42:10.254Z,59.60
2023-02-22T19:44:37.469Z,69.05
2023-02-22T19:47:08.967Z,67.00
2023-02-22T19:49:37.183Z,62.92
2023-02-22T19:52:06.596Z,59.22
2023-02-22T19:54:33.542Z,63.47
2023-02-22T19:57:00.453Z,56.50
2023-02-22T19:59:27.355Z,59.13
2023-02-22T20:01:54.691Z,64.65
2023-02-22T20:04:21.791Z,57.00
2023-02-22T20:06:53.897Z,66.78
2023-02-22T20:09:49.328Z,62.40
2023-02-22T20:12:16.007Z,60.50
2023-02-22T20:14:42.697Z,62.40
2023-02-22T20:17:10.251Z,62.83
2023-02-22T20:19:38.680Z,60.95
2023-02-22T20:22:05.315Z,61.40
2023-02-22T20:24:31.987Z,61.38
2023-02-22T20:26:58.695Z,60.17
2023-02-22T20:29:31.997Z,62.80
2023-02-22T20:32:00.171Z,58.97
2023-02-22T20:34:30.398Z,57.08
2023-02-22T20:36:57.484Z,54.67
2023-02-22T20:39:24.268Z,58.08
2023-02-22T20:41:51.018Z,57.03
2023-02-22T20:44:19.124Z,54.80
2023-02-22T20:46:46.673Z,57.13
2023-02-22T20:49:18.742Z,55.03
2023-02-22T20:51:46.767Z,50.53
2023-02-22T20:54:13.849Z,54.13
2023-02-22T20:56:42.022Z,56.05
2023-02-22T20:59:11.247Z,57.92
2023-02-22T21:01:37.870Z,54.83
2023-02-22T21:04:06.401Z,55.13
2023-02-22T21:06:35.634Z,55.13
2023-02-22T21:09:05.168Z,56.97
2023-02-22T21:11:32.099Z,52.33
2023-02-22T21:14:00.148Z,58.28
2023-02-22T21:16:29.406Z,56.17
2023-02-22T21:19:01.042Z,56.78
2023-02-22T21:21:28.571Z,54.42
2023-02-22T21:23:57.618Z,56.42
2023-02-22T21:26:29.571Z,56.22
2023-02-22T21:28:59.890Z,53.20
2023-02-22T21:31:27.126Z,56.03
2023-02-22T21:33:55.164Z,57.30
2023-02-22T21:36:25.406Z,53.70
2023-02-22T21:39:00.847Z,51.72
2023-02-22T21:41:30.189Z,51.35
2023-02-22T21:43:58.733Z,52.30
2023-02-22T21:46:26.654Z,51.55
2023-02-22T21:48:53.352Z,60.88
2023-02-22T21:51:25.866Z,53.40
2023-02-22T21:53:54.551Z,59.85
2023-02-22T21:56:29.144Z,52.45
2023-02-22T21:59:00.998Z,49.97
2023-02-22T22:01:29.741Z,57.70
2023-02-22T22:03:59.560Z,58.42
2023-02-22T22:06:27.906Z,52.35
2023-02-22T22:08:54.746Z,53.47
2023-02-22T22:11:21.717Z,53.80
2023-02-22T22:13:51.473Z,56.80
2023-02-22T22:16:20.258Z,47.45
2023-02-22T22:18:47.054Z,54.25
2023-02-22T22:21:19.391Z,55.83
2023-02-22T22:23:47.198Z,50.33
2023-02-22T22:26:16.578Z,50.22
2023-02-22T22:28:46.506Z,57.47
2023-02-22T22:31:14.150Z,58.25
2023-02-22T22:33:42.404Z,56.63
2023-02-22T22:36:09.913Z,53.05
2023-02-22T22:38:39.338Z,53.40
2023-02-22T22:41:10.502Z,59.08
2023-02-22T22:43:37.619Z,55.83
2023-02-22T22:46:05.504Z,60.92
2023-02-22T22:48:34.547Z,60.03
2023-02-22T22:51:02.780Z,61.03
2023-02-22T22:53:31.662Z,61.00
2023-02-22T22:56:05.874Z,64.97
2023-02-22T22:58:34.176Z,62.97
2023-02-22T23:01:06.619Z,70.45
2023-02-22T23:03:36.832Z,73.68
2023-02-22T23:06:04.862Z,83.38
2023-02-22T23:08:42.947Z,82.50
2023-02-22T23:11:10.848Z,83.63
2023-02-22T23:13:38.704Z,90.35
2023-02-22T23:16:12.957Z,82.90
2023-02-22T23:18:43.100Z,81.50
2023-02-22T23:21:10.664Z,78.82
2023-02-22T23:23:37.976Z,76.78
2023-02-22T23:26:11.626Z,79.00
2023-02-22T23:31:07.363Z,74.20
2023-02-22T23:33:34.061Z,79.32
2023-02-22T23:36:00.714Z,76.40
2023-02-22T23:38:27.339Z,76.93
2023-02-22T23:40:56.426Z,79.45
2023-02-22T23:43:25.449Z,78.85
2023-02-22T23:45:56.661Z,72.20
2023-02-22T23:48:24.311Z,79.53
2023-02-22T23:50:51.289Z,82.57
2023-02-22T23:53:18.387Z,74.85
2023-02-22T23:55:44.974Z,74.85
2023-02-22T23:58:11.604Z,75.70
